sensor_id;sensor_type;location;lat;lon;timestamp;pressure;altitude;pressure_sealevel;temperature;humidity
20228;BME280;12195;55.790;37.572;2024-03-07T00:02:19;100673.81;;;-3.08;42.76
20228;BME280;12195;55.790;37.572;2024-03-07T00:04:51;100671.33;;;-3.04;42.75
20228;BME280;12195;55.790;37.572;2024-03-07T00:07:24;100662.80;;;-3.01;42.17
20228;BME280;12195;55.790;37.572;2024-03-07T00:09:57;100667.05;;;-3.02;42.09
20228;BME280;12195;55.790;37.572;2024-03-07T00:12:31;100670.58;;;-2.97;41.64
20228;BME280;12195;55.790;37.572;2024-03-07T00:15:12;100661.13;;;-2.98;41.87
20228;BME280;12195;55.790;37.572;2024-03-07T00:17:37;100658.56;;;-2.98;41.76
20228;BME280;12195;55.790;37.572;2024-03-07T00:20:10;100666.42;;;-2.89;41.63
20228;BME280;12195;55.790;37.572;2024-03-07T00:22:51;100661.05;;;-3.04;41.78
20228;BME280;12195;55.790;37.572;2024-03-07T00:25:23;100661.82;;;-3.09;41.82
20228;BME280;12195;55.790;37.572;2024-03-07T00:27:57;100654.03;;;-3.14;41.94
20228;BME280;12195;55.790;37.572;2024-03-07T00:30:30;100654.02;;;-3.17;42.01
20228;BME280;12195;55.790;37.572;2024-03-07T00:33:05;100655.65;;;-3.20;42.20
20228;BME280;12195;55.790;37.572;2024-03-07T00:35:39;100655.59;;;-3.25;42.39
20228;BME280;12195;55.790;37.572;2024-03-07T00:38:11;100655.65;;;-3.20;42.35
20228;BME280;12195;55.790;37.572;2024-03-07T00:40:44;100654.75;;;-3.24;42.55
20228;BME280;12195;55.790;37.572;2024-03-07T00:43:16;100657.26;;;-3.27;42.62
20228;BME280;12195;55.790;37.572;2024-03-07T00:45:49;100658.05;;;-3.31;42.72
20228;BME280;12195;55.790;37.572;2024-03-07T00:48:21;100651.14;;;-3.35;42.84
20228;BME280;12195;55.790;37.572;2024-03-07T00:50:54;100646.80;;;-3.39;42.94
20228;BME280;12195;55.790;37.572;2024-03-07T00:53:27;100646.06;;;-3.32;42.46
20228;BME280;12195;55.790;37.572;2024-03-07T00:55:59;100637.18;;;-3.52;43.34
20228;BME280;12195;55.790;37.572;2024-03-07T00:58:33;100643.10;;;-3.56;44.01
20228;BME280;12195;55.790;37.572;2024-03-07T01:01:06;100637.91;;;-3.60;44.27
20228;BME280;12195;55.790;37.572;2024-03-07T01:03:39;100634.44;;;-3.62;44.58
20228;BME280;12195;55.790;37.572;2024-03-07T01:06:12;100639.52;;;-3.67;44.74
20228;BME280;12195;55.790;37.572;2024-03-07T01:08:44;100642.95;;;-3.65;44.62
20228;BME280;12195;55.790;37.572;2024-03-07T01:11:16;100634.39;;;-3.67;44.61
20228;BME280;12195;55.790;37.572;2024-03-07T01:13:50;100633.54;;;-3.66;44.77
20228;BME280;12195;55.790;37.572;2024-03-07T01:16:23;100637.77;;;-3.68;44.70
20228;BME280;12195;55.790;37.572;2024-03-07T01:18:56;100629.19;;;-3.70;45.26
20228;BME280;12195;55.790;37.572;2024-03-07T01:21:28;100634.27;;;-3.73;45.25
20228;BME280;12195;55.790;37.572;2024-03-07T01:24:03;100632.42;;;-3.80;45.28
20228;BME280;12195;55.790;37.572;2024-03-07T01:26:36;100641.77;;;-3.83;45.44
20228;BME280;12195;55.790;37.572;2024-03-07T01:29:08;100632.33;;;-3.86;45.38
20228;BME280;12195;55.790;37.572;2024-03-07T01:31:41;100626.33;;;-3.86;45.48
20228;BME280;12195;55.790;37.572;2024-03-07T01:34:14;100626.30;;;-3.89;45.61
20228;BME280;12195;55.790;37.572;2024-03-07T01:36:46;100634.80;;;-3.90;45.50
20228;BME280;12195;55.790;37.572;2024-03-07T01:39:18;100632.20;;;-3.92;45.62
20228;BME280;12195;55.790;37.572;2024-03-07T01:41:50;100623.64;;;-3.94;45.69
20228;BME280;12195;55.790;37.572;2024-03-07T01:44:23;100617.61;;;-3.97;45.71
20228;BME280;12195;55.790;37.572;2024-03-07T01:46:55;100620.95;;;-4.01;46.10
20228;BME280;12195;55.790;37.572;2024-03-07T01:49:28;100615.70;;;-4.07;46.53
20228;BME280;12195;55.790;37.572;2024-03-07T01:52:00;100613.87;;;-4.13;46.83
20228;BME280;12195;55.790;37.572;2024-03-07T01:54:34;100614.66;;;-4.17;47.10
20228;BME280;12195;55.790;37.572;2024-03-07T01:57:06;100617.19;;;-4.18;47.01
20228;BME280;12195;55.790;37.572;2024-03-07T01:59:39;100617.41;;;-4.06;45.54
20228;BME280;12195;55.790;37.572;2024-03-07T02:02:11;100609.59;;;-4.14;46.07
20228;BME280;12195;55.790;37.572;2024-03-07T02:04:44;100614.72;;;-4.14;46.01
20228;BME280;12195;55.790;37.572;2024-03-07T02:07:16;100618.97;;;-4.16;46.15
20228;BME280;12195;55.790;37.572;2024-03-07T02:09:50;100610.37;;;-4.18;46.20
20228;BME280;12195;55.790;37.572;2024-03-07T02:12:24;100606.06;;;-4.20;46.30
20228;BME280;12195;55.790;37.572;2024-03-07T02:14:58;100609.38;;;-4.26;46.41
20228;BME280;12195;55.790;37.572;2024-03-07T02:17:32;100609.38;;;-4.26;46.41
20228;BME280;12195;55.790;37.572;2024-03-07T02:20:05;100606.74;;;-4.30;46.64
20228;BME280;12195;55.790;37.572;2024-03-07T02:22:40;100606.70;;;-4.32;46.91
20228;BME280;12195;55.790;37.572;2024-03-07T02:25:12;100600.67;;;-4.34;46.95
20228;BME280;12195;55.790;37.572;2024-03-07T02:27:46;100598.08;;;-4.35;47.14
20228;BME280;12195;55.790;37.572;2024-03-07T02:30:18;100598.89;;;-4.38;47.27
20228;BME280;12195;55.790;37.572;2024-03-07T02:32:51;100599.66;;;-4.42;47.31
20228;BME280;12195;55.790;37.572;2024-03-07T02:35:25;100597.03;;;-4.46;47.36
20228;BME280;12195;55.790;37.572;2024-03-07T02:37:58;100597.00;;;-4.48;47.63
20228;BME280;12195;55.790;37.572;2024-03-07T02:40:31;100593.53;;;-4.50;47.74
20228;BME280;12195;55.790;37.572;2024-03-07T02:43:04;100585.03;;;-4.49;47.86
20228;BME280;12195;55.790;37.572;2024-03-07T02:45:37;100591.80;;;-4.51;47.97
20228;BME280;12195;55.790;37.572;2024-03-07T02:48:10;100584.05;;;-4.54;48.04
20228;BME280;12195;55.790;37.572;2024-03-07T02:50:43;100584.89;;;-4.55;48.24
20228;BME280;12195;55.790;37.572;2024-03-07T02:53:16;100584.09;;;-4.52;48.31
20228;BME280;12195;55.790;37.572;2024-03-07T02:55:49;100584.09;;;-4.52;48.15
20228;BME280;12195;55.790;37.572;2024-03-07T02:58:21;100579.81;;;-4.53;48.09
20228;BME280;12195;55.790;37.572;2024-03-07T03:00:57;100591.73;;;-4.54;48.22
20228;BME280;12195;55.790;37.572;2024-03-07T03:03:31;100586.58;;;-4.57;48.32
20228;BME280;12195;55.790;37.572;2024-03-07T03:06:04;100582.27;;;-4.58;48.32
20228;BME280;12195;55.790;37.572;2024-03-07T03:08:37;100576.30;;;-4.58;48.57
20228;BME280;12195;55.790;37.572;2024-03-07T03:11:10;100584.80;;;-4.59;48.71
20228;BME280;12195;55.790;37.572;2024-03-07T03:13:44;100581.45;;;-4.57;48.45
20228;BME280;12195;55.790;37.572;2024-03-07T03:16:18;100581.45;;;-4.55;48.22
20228;BME280;12195;55.790;37.572;2024-03-07T03:18:54;100583.21;;;-4.54;48.41
20228;BME280;12195;55.790;37.572;2024-03-07T03:21:28;100566.28;;;-4.45;47.69
20228;BME280;12195;55.790;37.572;2024-03-07T03:24:02;100575.89;;;-4.35;47.34
20228;BME280;12195;55.790;37.572;2024-03-07T03:26:36;100573.48;;;-4.26;47.01
20228;BME280;12195;55.790;37.572;2024-03-07T03:29:09;100580.46;;;-4.19;46.72
20228;BME280;12195;55.790;37.572;2024-03-07T03:31:43;100571.12;;;-4.15;46.77
20228;BME280;12195;55.790;37.572;2024-03-07T03:34:16;100568.61;;;-4.12;46.54
20228;BME280;12195;55.790;37.572;2024-03-07T03:36:49;100568.64;;;-4.11;46.34
20228;BME280;12195;55.790;37.572;2024-03-07T03:39:22;100578.09;;;-4.08;46.29
20228;BME280;12195;55.790;37.572;2024-03-07T03:41:57;100566.14;;;-4.06;46.18
20228;BME280;12195;55.790;37.572;2024-03-07T03:44:30;100567.98;;;-3.99;45.88
20228;BME280;12195;55.790;37.572;2024-03-07T03:47:03;100571.42;;;-3.99;46.13
20228;BME280;12195;55.790;37.572;2024-03-07T03:49:35;100571.45;;;-3.97;45.86
20228;BME280;12195;55.790;37.572;2024-03-07T03:52:08;100567.11;;;-4.00;45.74
20228;BME280;12195;55.790;37.572;2024-03-07T03:54:41;100563.70;;;-4.00;45.99
20228;BME280;12195;55.790;37.572;2024-03-07T03:57:13;100566.30;;;-3.99;46.19
20228;BME280;12195;55.790;37.572;2024-03-07T03:59:47;100560.29;;;-3.99;46.40
20228;BME280;12195;55.790;37.572;2024-03-07T04:02:20;100567.05;;;-4.04;46.58
20228;BME280;12195;55.790;37.572;2024-03-07T04:04:56;100559.27;;;-4.09;46.64
20228;BME280;12195;55.790;37.572;2024-03-07T04:07:31;100559.20;;;-4.13;47.01
20228;BME280;12195;55.790;37.572;2024-03-07T04:10:05;100566.80;;;-4.18;47.25
20228;BME280;12195;55.790;37.572;2024-03-07T04:12:41;100555.70;;;-4.17;47.12
20228;BME280;12195;55.790;37.572;2024-03-07T04:15:15;100548.02;;;-4.17;47.60
20228;BME280;12195;55.790;37.572;2024-03-07T04:17:51;100548.08;;;-4.14;47.65
20228;BME280;12195;55.790;37.572;2024-03-07T04:20:24;100545.58;;;-4.11;47.39
20228;BME280;12195;55.790;37.572;2024-03-07T04:22:57;100550.79;;;-4.05;47.10
20228;BME280;12195;55.790;37.572;2024-03-07T04:25:31;100552.59;;;-3.99;46.99
20228;BME280;12195;55.790;37.572;2024-03-07T04:28:04;100547.59;;;-3.93;46.63
20228;BME280;12195;55.790;37.572;2024-03-07T04:30:38;100548.48;;;-3.90;46.49
20228;BME280;12195;55.790;37.572;2024-03-07T04:33:10;100554.61;;;-3.82;46.25
20228;BME280;12195;55.790;37.572;2024-03-07T04:35:43;100550.34;;;-3.80;46.18
20228;BME280;12195;55.790;37.572;2024-03-07T04:38:16;100543.64;;;-3.72;45.96
20228;BME280;12195;55.790;37.572;2024-03-07T04:40:49;100546.28;;;-3.67;46.17
20228;BME280;12195;55.790;37.572;2024-03-07T04:43:22;100548.95;;;-3.60;45.83
20228;BME280;12195;55.790;37.572;2024-03-07T04:45:57;100543.95;;;-3.51;45.37
20228;BME280;12195;55.790;37.572;2024-03-07T04:48:30;100543.22;;;-3.44;45.09
20228;BME280;12195;55.790;37.572;2024-03-07T04:51:04;100544.19;;;-3.36;44.73
20228;BME280;12195;55.790;37.572;2024-03-07T04:53:38;100543.48;;;-3.24;44.63
20228;BME280;12195;55.790;37.572;2024-03-07T04:56:14;100553.03;;;-3.16;44.69
20228;BME280;12195;55.790;37.572;2024-03-07T04:58:47;100547.16;;;-3.07;44.22
20228;BME280;12195;55.790;37.572;2024-03-07T05:01:21;100543.86;;;-2.97;44.03
20228;BME280;12195;55.790;37.572;2024-03-07T05:03:54;100544.90;;;-2.82;44.10
20228;BME280;12195;55.790;37.572;2024-03-07T05:06:26;100535.21;;;-2.28;43.52
20228;BME280;12195;55.790;37.572;2024-03-07T05:09:01;100540.95;;;-1.59;41.09
20228;BME280;12195;55.790;37.572;2024-03-07T05:11:36;100532.69;;;-1.08;40.98
20228;BME280;12195;55.790;37.572;2024-03-07T05:14:08;100526.09;;;-0.33;38.80
20228;BME280;12195;55.790;37.572;2024-03-07T05:16:46;100525.28;;;0.09;37.49
20228;BME280;12195;55.790;37.572;2024-03-07T05:19:21;100523.55;;;0.25;37.07
20228;BME280;12195;55.790;37.572;2024-03-07T05:21:55;100520.95;;;0.47;36.73
20228;BME280;12195;55.790;37.572;2024-03-07T05:24:28;100521.78;;;0.69;36.58
20228;BME280;12195;55.790;37.572;2024-03-07T05:27:01;100519.95;;;1.02;35.92
20228;BME280;12195;55.790;37.572;2024-03-07T05:29:35;100518.86;;;1.53;35.07
20228;BME280;12195;55.790;37.572;2024-03-07T05:32:23;100514.42;;;1.76;34.13
20228;BME280;12195;55.790;37.572;2024-03-07T05:34:59;100520.55;;;1.61;34.08
20228;BME280;12195;55.790;37.572;2024-03-07T05:37:34;100525.74;;;1.55;34.44
20228;BME280;12195;55.790;37.572;2024-03-07T05:40:11;100516.06;;;1.87;34.23
20228;BME280;12195;55.790;37.572;2024-03-07T05:42:45;100510.32;;;2.53;33.43
20228;BME280;12195;55.790;37.572;2024-03-07T05:45:18;100503.98;;;2.83;32.34
20228;BME280;12195;55.790;37.572;2024-03-07T05:47:53;100501.25;;;2.95;32.44
20228;BME280;12195;55.790;37.572;2024-03-07T05:50:27;100500.21;;;3.09;31.91
20228;BME280;12195;55.790;37.572;2024-03-07T05:53:00;100496.57;;;3.24;31.68
20228;BME280;12195;55.790;37.572;2024-03-07T05:55:34;100498.09;;;3.40;32.04
20228;BME280;12195;55.790;37.572;2024-03-07T05:58:07;100488.34;;;3.57;31.42
20228;BME280;12195;55.790;37.572;2024-03-07T06:00:44;100486.56;;;4.15;31.28
20228;BME280;12195;55.790;37.572;2024-03-07T06:03:19;100500.46;;;4.62;30.05
20228;BME280;12195;55.790;37.572;2024-03-07T06:05:52;100494.98;;;4.77;29.65
20228;BME280;12195;55.790;37.572;2024-03-07T06:08:25;100498.97;;;4.49;29.77
20228;BME280;12195;55.790;37.572;2024-03-07T06:10:58;100494.64;;;3.98;30.32
20228;BME280;12195;55.790;37.572;2024-03-07T06:13:32;100500.55;;;3.50;31.47
20228;BME280;12195;55.790;37.572;2024-03-07T06:16:05;100494.53;;;4.04;32.75
20228;BME280;12195;55.790;37.572;2024-03-07T06:18:39;100487.03;;;4.39;30.27
20228;BME280;12195;55.790;37.572;2024-03-07T06:21:13;100485.67;;;4.66;29.52
20228;BME280;12195;55.790;37.572;2024-03-07T06:23:48;100480.30;;;5.19;29.62
20228;BME280;12195;55.790;37.572;2024-03-07T06:26:23;100463.66;;;6.02;28.38
20228;BME280;12195;55.790;37.572;2024-03-07T06:28:58;100470.33;;;6.47;27.31
20228;BME280;12195;55.790;37.572;2024-03-07T06:31:32;100467.61;;;6.18;27.61
20228;BME280;12195;55.790;37.572;2024-03-07T06:34:07;100465.50;;;5.59;28.23
20228;BME280;12195;55.790;37.572;2024-03-07T06:36:42;100467.77;;;4.95;29.36
20228;BME280;12195;55.790;37.572;2024-03-07T06:39:16;100472.17;;;4.46;30.19
20228;BME280;12195;55.790;37.572;2024-03-07T06:41:50;100464.35;;;4.47;30.26
20228;BME280;12195;55.790;37.572;2024-03-07T06:44:24;100470.86;;;4.69;30.66
20228;BME280;12195;55.790;37.572;2024-03-07T06:46:58;100470.86;;;5.53;29.62
20228;BME280;12195;55.790;37.572;2024-03-07T06:49:31;100462.62;;;6.75;28.50
20228;BME280;12195;55.790;37.572;2024-03-07T06:52:06;100458.52;;;8.10;26.57
20228;BME280;12195;55.790;37.572;2024-03-07T06:54:40;100452.47;;;8.84;25.68
20228;BME280;12195;55.790;37.572;2024-03-07T06:57:17;100451.08;;;8.50;25.16
20228;BME280;12195;55.790;37.572;2024-03-07T06:59:53;100448.77;;;7.61;26.17
20228;BME280;12195;55.790;37.572;2024-03-07T07:02:28;100458.09;;;6.81;27.86
20228;BME280;12195;55.790;37.572;2024-03-07T07:05:03;100444.83;;;6.58;28.21
20228;BME280;12195;55.790;37.572;2024-03-07T07:07:39;100443.41;;;6.45;28.34
20228;BME280;12195;55.790;37.572;2024-03-07T07:10:14;100447.72;;;6.14;28.55
20228;BME280;12195;55.790;37.572;2024-03-07T07:12:50;100443.91;;;5.54;29.07
20228;BME280;12195;55.790;37.572;2024-03-07T07:15:24;100449.44;;;4.99;30.43
20228;BME280;12195;55.790;37.572;2024-03-07T07:17:58;100451.42;;;4.43;31.29
20228;BME280;12195;55.790;37.572;2024-03-07T07:20:32;100442.69;;;3.98;31.84
20228;BME280;12195;55.790;37.572;2024-03-07T07:23:07;100448.41;;;3.65;32.75
20228;BME280;12195;55.790;37.572;2024-03-07T07:25:41;100451.41;;;3.37;33.02
20228;BME280;12195;55.790;37.572;2024-03-07T07:28:16;100447.40;;;3.15;33.75
20228;BME280;12195;55.790;37.572;2024-03-07T07:30:50;100446.70;;;3.01;34.29
20228;BME280;12195;55.790;37.572;2024-03-07T07:33:24;100447.70;;;2.91;34.31
20228;BME280;12195;55.790;37.572;2024-03-07T07:35:57;100450.39;;;2.83;34.69
20228;BME280;12195;55.790;37.572;2024-03-07T07:38:31;100446.20;;;2.70;34.72
20228;BME280;12195;55.790;37.572;2024-03-07T07:41:04;100445.41;;;2.64;34.74
20228;BME280;12195;55.790;37.572;2024-03-07T07:43:39;100426.55;;;2.53;35.00
20228;BME280;12195;55.790;37.572;2024-03-07T07:46:14;100446.28;;;2.64;34.68
20228;BME280;12195;55.790;37.572;2024-03-07T07:48:48;100434.34;;;2.50;35.80
20228;BME280;12195;55.790;37.572;2024-03-07T07:54:15;100426.63;;;2.44;35.92
20228;BME280;12195;55.790;37.572;2024-03-07T07:56:49;100430.06;;;2.47;36.54
20228;BME280;12195;55.790;37.572;2024-03-07T07:59:23;100428.30;;;2.49;36.79
20228;BME280;12195;55.790;37.572;2024-03-07T08:01:56;100423.00;;;2.58;36.50
20228;BME280;12195;55.790;37.572;2024-03-07T08:04:29;100422.87;;;2.70;37.06
20228;BME280;12195;55.790;37.572;2024-03-07T08:07:02;100411.55;;;2.79;36.26
20228;BME280;12195;55.790;37.572;2024-03-07T08:09:36;100408.86;;;2.85;36.24
20228;BME280;12195;55.790;37.572;2024-03-07T08:12:11;100408.80;;;2.91;36.20
20228;BME280;12195;55.790;37.572;2024-03-07T08:14:44;100406.95;;;3.00;36.04
20228;BME280;12195;55.790;37.572;2024-03-07T08:17:17;100403.33;;;3.12;36.83
20228;BME280;12195;55.790;37.572;2024-03-07T08:19:52;100400.56;;;3.24;36.35
20228;BME280;12195;55.790;37.572;2024-03-07T08:22:26;100403.06;;;3.30;36.12
20228;BME280;12195;55.790;37.572;2024-03-07T08:24:58;100400.38;;;3.37;35.84
20228;BME280;12195;55.790;37.572;2024-03-07T08:27:32;100401.22;;;3.38;35.94
20228;BME280;12195;55.790;37.572;2024-03-07T08:30:05;100387.38;;;3.39;36.57
20228;BME280;12195;55.790;37.572;2024-03-07T08:32:49;100390.61;;;3.53;36.03
20228;BME280;12195;55.790;37.572;2024-03-07T08:35:25;100386.34;;;3.49;36.59
20228;BME280;12195;55.790;37.572;2024-03-07T08:38:00;100385.46;;;3.50;36.24
20228;BME280;12195;55.790;37.572;2024-03-07T08:40:34;100393.23;;;3.51;36.60
20228;BME280;12195;55.790;37.572;2024-03-07T08:43:08;100379.36;;;3.52;36.57
20228;BME280;12195;55.790;37.572;2024-03-07T08:45:42;100375.04;;;3.53;36.74
20228;BME280;12195;55.790;37.572;2024-03-07T08:48:15;100377.61;;;3.54;36.02
20228;BME280;12195;55.790;37.572;2024-03-07T08:50:49;100375.91;;;3.53;36.44
20228;BME280;12195;55.790;37.572;2024-03-07T08:53:23;100371.55;;;3.54;37.05
20228;BME280;12195;55.790;37.572;2024-03-07T08:55:56;100375.81;;;3.58;35.88
20228;BME280;12195;55.790;37.572;2024-03-07T08:58:31;100368.03;;;3.58;36.15
20228;BME280;12195;55.790;37.572;2024-03-07T09:01:03;100369.59;;;3.69;35.74
20228;BME280;12195;55.790;37.572;2024-03-07T09:03:37;100365.22;;;3.71;35.52
20228;BME280;12195;55.790;37.572;2024-03-07T09:06:11;100377.22;;;3.78;35.50
20228;BME280;12195;55.790;37.572;2024-03-07T09:08:46;100363.28;;;3.84;35.61
20228;BME280;12195;55.790;37.572;2024-03-07T09:11:20;100370.08;;;3.89;35.51
20228;BME280;12195;55.790;37.572;2024-03-07T09:13:55;100366.46;;;3.99;36.06
20228;BME280;12195;55.790;37.572;2024-03-07T09:16:29;100355.84;;;4.11;35.55
20228;BME280;12195;55.790;37.572;2024-03-07T09:19:06;100353.00;;;4.25;35.39
20228;BME280;12195;55.790;37.572;2024-03-07T09:21:41;100342.37;;;4.37;34.50
20228;BME280;12195;55.790;37.572;2024-03-07T09:24:14;100350.98;;;4.39;35.11
20228;BME280;12195;55.790;37.572;2024-03-07T09:26:49;100344.05;;;4.39;35.18
20228;BME280;12195;55.790;37.572;2024-03-07T09:29:25;100350.03;;;4.43;35.32
20228;BME280;12195;55.790;37.572;2024-03-07T09:31:58;100347.27;;;4.50;35.37
20228;BME280;12195;55.790;37.572;2024-03-07T09:34:31;100341.02;;;4.60;34.84
20228;BME280;12195;55.790;37.572;2024-03-07T09:37:04;100344.90;;;4.81;35.14
20228;BME280;12195;55.790;37.572;2024-03-07T09:39:38;100331.08;;;4.79;35.49
20228;BME280;12195;55.790;37.572;2024-03-07T09:42:12;100322.27;;;4.86;34.57
20228;BME280;12195;55.790;37.572;2024-03-07T09:44:49;100321.31;;;4.90;34.17
20228;BME280;12195;55.790;37.572;2024-03-07T09:47:24;100318.71;;;4.90;34.14
20228;BME280;12195;55.790;37.572;2024-03-07T09:49:58;100321.31;;;4.90;34.06
20228;BME280;12195;55.790;37.572;2024-03-07T09:52:33;100322.18;;;4.89;34.38
20228;BME280;12195;55.790;37.572;2024-03-07T09:55:08;100327.30;;;4.93;34.13
20228;BME280;12195;55.790;37.572;2024-03-07T09:57:42;100326.39;;;4.94;34.04
20228;BME280;12195;55.790;37.572;2024-03-07T10:00:20;100324.87;;;4.86;33.91
20228;BME280;12195;55.790;37.572;2024-03-07T10:03:07;100331.83;;;4.84;34.34
20228;BME280;12195;55.790;37.572;2024-03-07T10:05:42;100319.06;;;4.73;34.29
20228;BME280;12195;55.790;37.572;2024-03-07T10:08:16;100329.29;;;4.81;34.47
20228;BME280;12195;55.790;37.572;2024-03-07T10:10:50;100333.19;;;4.62;34.99
20228;BME280;12195;55.790;37.572;2024-03-07T10:13:24;100333.25;;;4.59;34.48
20228;BME280;12195;55.790;37.572;2024-03-07T10:15:57;100326.39;;;4.55;34.67
20228;BME280;12195;55.790;37.572;2024-03-07T10:18:44;100324.69;;;4.54;35.46
20228;BME280;12195;55.790;37.572;2024-03-07T10:21:23;100322.11;;;4.52;35.13
20228;BME280;12195;55.790;37.572;2024-03-07T10:24:07;100318.62;;;4.53;34.45
20228;BME280;12195;55.790;37.572;2024-03-07T10:26:44;100317.86;;;4.48;35.24
20228;BME280;12195;55.790;37.572;2024-03-07T10:29:21;100315.16;;;4.53;34.93
20228;BME280;12195;55.790;37.572;2024-03-07T10:31:56;100315.99;;;4.55;35.37
20228;BME280;12195;55.790;37.572;2024-03-07T10:34:36;100317.50;;;4.65;34.55
20228;BME280;12195;55.790;37.572;2024-03-07T10:37:10;100313.11;;;4.68;34.57
20228;BME280;12195;55.790;37.572;2024-03-07T10:39:48;100302.91;;;4.59;34.71
20228;BME280;12195;55.790;37.572;2024-03-07T10:42:28;100297.73;;;4.58;34.52
20228;BME280;12195;55.790;37.572;2024-03-07T10:45:05;100300.31;;;4.59;35.79
20228;BME280;12195;55.790;37.572;2024-03-07T10:47:42;100299.41;;;4.60;35.32
20228;BME280;12195;55.790;37.572;2024-03-07T10:54:20;100295.63;;;4.75;34.19
20228;BME280;12195;55.790;37.572;2024-03-07T10:56:32;100298.28;;;4.72;35.03
20228;BME280;12195;55.790;37.572;2024-03-07T10:59:18;100286.23;;;4.68;34.99
20228;BME280;12195;55.790;37.572;2024-03-07T11:02:11;100284.59;;;4.64;34.87
20228;BME280;12195;55.790;37.572;2024-03-07T11:04:43;100275.89;;;4.65;35.71
20228;BME280;12195;55.790;37.572;2024-03-07T11:07:20;100272.52;;;4.61;34.80
20228;BME280;12195;55.790;37.572;2024-03-07T11:09:53;100269.88;;;4.63;35.48
20228;BME280;12195;55.790;37.572;2024-03-07T11:12:26;100271.55;;;4.65;34.85
20228;BME280;12195;55.790;37.572;2024-03-07T11:15:03;100270.27;;;4.84;34.66
20228;BME280;12195;55.790;37.572;2024-03-07T11:17:44;100264.45;;;4.73;34.53
20228;BME280;12195;55.790;37.572;2024-03-07T11:20:21;100256.67;;;4.72;34.41
20228;BME280;12195;55.790;37.572;2024-03-07T11:22:55;100256.82;;;4.66;34.75
20228;BME280;12195;55.790;37.572;2024-03-07T11:25:28;100255.08;;;4.65;35.11
20228;BME280;12195;55.790;37.572;2024-03-07T11:28:03;100248.13;;;4.67;35.15
20228;BME280;12195;55.790;37.572;2024-03-07T11:30:38;100249.83;;;4.68;34.75
20228;BME280;12195;55.790;37.572;2024-03-07T11:33:12;100252.30;;;4.74;34.96
20228;BME280;12195;55.790;37.572;2024-03-07T11:35:50;100250.52;;;4.76;34.91
20228;BME280;12195;55.790;37.572;2024-03-07T11:38:30;100248.84;;;4.73;34.44
20228;BME280;12195;55.790;37.572;2024-03-07T11:41:03;100235.86;;;4.72;34.79
20228;BME280;12195;55.790;37.572;2024-03-07T11:43:38;100244.50;;;4.74;35.44
20228;BME280;12195;55.790;37.572;2024-03-07T11:46:11;100244.34;;;4.80;34.74
20228;BME280;12195;55.790;37.572;2024-03-07T11:48:46;100241.69;;;4.83;35.50
20228;BME280;12195;55.790;37.572;2024-03-07T11:51:20;100243.33;;;4.87;34.61
20228;BME280;12195;55.790;37.572;2024-03-07T11:53:55;100230.16;;;4.93;34.86
20228;BME280;12195;55.790;37.572;2024-03-07T11:56:28;100239.45;;;5.04;35.86
20228;BME280;12195;55.790;37.572;2024-03-07T11:59:01;100231.41;;;5.13;34.53
20228;BME280;12195;55.790;37.572;2024-03-07T12:01:36;100231.14;;;5.24;34.88
20228;BME280;12195;55.790;37.572;2024-03-07T12:04:11;100233.41;;;5.37;34.07
20228;BME280;12195;55.790;37.572;2024-03-07T12:06:53;100227.34;;;5.37;33.76
20228;BME280;12195;55.790;37.572;2024-03-07T12:09:26;100219.45;;;5.40;33.94
20228;BME280;12195;55.790;37.572;2024-03-07T12:12:02;100219.21;;;5.49;34.41
20228;BME280;12195;55.790;37.572;2024-03-07T12:14:35;100206.84;;;5.57;33.68
20228;BME280;12195;55.790;37.572;2024-03-07T12:17:08;100198.78;;;5.66;33.41
20228;BME280;12195;55.790;37.572;2024-03-07T12:19:43;100212.27;;;5.80;33.89
20228;BME280;12195;55.790;37.572;2024-03-07T12:22:22;100209.63;;;5.83;33.07
20228;BME280;12195;55.790;37.572;2024-03-07T12:25:03;100205.09;;;5.90;32.83
20228;BME280;12195;55.790;37.572;2024-03-07T12:27:39;100200.63;;;5.95;32.76
20228;BME280;12195;55.790;37.572;2024-03-07T12:30:34;100198.52;;;6.07;33.61
20228;BME280;12195;55.790;37.572;2024-03-07T12:33:10;100192.83;;;6.24;32.65
20228;BME280;12195;55.790;37.572;2024-03-07T12:35:48;100194.21;;;6.35;32.75
20228;BME280;12195;55.790;37.572;2024-03-07T12:38:26;100188.00;;;6.39;32.44
20228;BME280;12195;55.790;37.572;2024-03-07T12:41:10;100188.72;;;6.44;32.78
20228;BME280;12195;55.790;37.572;2024-03-07T12:43:50;100186.86;;;6.48;32.13
20228;BME280;12195;55.790;37.572;2024-03-07T12:46:23;100184.95;;;6.54;32.12
20228;BME280;12195;55.790;37.572;2024-03-07T12:48:57;100180.43;;;6.59;31.70
20228;BME280;12195;55.790;37.572;2024-03-07T12:51:31;100178.93;;;6.78;31.42
20228;BME280;12195;55.790;37.572;2024-03-07T12:54:11;100160.97;;;7.21;31.74
20228;BME280;12195;55.790;37.572;2024-03-07T12:56:44;100159.48;;;8.34;29.91
20228;BME280;12195;55.790;37.572;2024-03-07T12:59:17;100149.05;;;9.97;27.86
20228;BME280;12195;55.790;37.572;2024-03-07T13:01:51;100150.27;;;11.34;25.90
20228;BME280;12195;55.790;37.572;2024-03-07T13:04:25;100144.27;;;12.91;24.79
20228;BME280;12195;55.790;37.572;2024-03-07T13:06:59;100142.22;;;14.27;22.59
20228;BME280;12195;55.790;37.572;2024-03-07T13:09:34;100132.63;;;15.32;21.41
20228;BME280;12195;55.790;37.572;2024-03-07T13:12:10;100139.77;;;16.19;21.06
20228;BME280;12195;55.790;37.572;2024-03-07T13:14:45;100121.49;;;16.99;20.04
20228;BME280;12195;55.790;37.572;2024-03-07T13:17:19;100123.42;;;17.55;19.03
20228;BME280;12195;55.790;37.572;2024-03-07T13:19:52;100119.27;;;17.97;18.52
20228;BME280;12195;55.790;37.572;2024-03-07T13:22:28;100096.72;;;19.09;17.84
20228;BME280;12195;55.790;37.572;2024-03-07T13:25:02;100096.72;;;19.09;17.84
20228;BME280;12195;55.790;37.572;2024-03-07T13:27:37;100111.76;;;20.22;17.11
20228;BME280;12195;55.790;37.572;2024-03-07T13:30:14;100109.84;;;20.83;16.11